St. John's, Canada
Current Conditions -  °F | °C
As of 12:00 AM on Saturday 22 Nov 2014 (Local Time) from CYYT Reporting Station
Few Clouds Few Clouds  
Wind Chill: 18°   Ceiling: Unl
Heat Index: 30°   Visibility: 15mi
Dew Point: 21°   Wind: 18mph
Humidity: 69%   Direction: 260°W
Pressure: 29.44"   Gusts: 30mph
Location:  47.58°N, 52.7°W
Report Text: CYYT 220300Z 26016G26KT 15SM FEW040 M01/M06 A2944 RMK SC2 SLP974
Loading
Personal Weather Stations






























Interactive Weather Map New forecast layout! Learn more

10-Day Weather Forecast

Advertisements
Track Severe Weather on mobile